PKWA/KWA METAR and TAF weather

Enter ICAO airport designator
Station Type Date Time Source
PKWA METAR 2020/09/22 23:40 UTC NOAA

PKWA 222340Z AUTO 10007KT 10SM SCT021 SCT031 SCT039 31/26 A2983 RMK AO2 T03140259


Station Type Date Time Source
PKWA Decoded METAR 2020/09/22 23:40 UTC NOAA

Kwajalein, Bucholz AAF, Kwajalein KMR ATOL Airport, Marshall Islands (PKWA) 08-43N 167-44E 2M
Sep 22, 2020 - 07:40 PM EDT / 2020.09.22 2340 UTC
Wind: from the E (100 degrees) at 8 MPH (7 KT):0
Visibility: 10 mile(s):0
Sky conditions: partly cloudy
Temperature: 88.5 F (31.4 C)
Heat index: 102.7 F (39.3 C):1
Dew Point: 78.6 F (25.9 C)
Relative Humidity: 72%
Pressure (altimeter): 29.83 in. Hg (1010 hPa)
ob: PKWA 222340Z AUTO 10007KT 10SM SCT021 SCT031 SCT039 31/26 A2983 RMK AO2 T03140259
cycle: 23

Station Type Date Time Source
PKWA TAF 2020/09/22 18:30 UTC NOAA

TAF PKWA 221723Z 2218/2318 08011KT P6SM VCSH SCT020 SCT050 SCT100

Example: see airport list